createdAt,value
2023-03-25T03:02:11.542Z,98700.16
2023-03-25T03:03:15.906Z,98699.09
2023-03-25T03:04:18.321Z,98709.38
2023-03-25T03:05:27.655Z,98702.38
2023-03-25T03:06:30.075Z,98690.03
2023-03-25T03:07:36.333Z,98690.00
2023-03-25T03:08:52.810Z,98683.00
2023-03-25T03:10:22.649Z,98677.97
2023-03-25T03:11:33.782Z,98674.22
2023-03-25T03:12:41.725Z,98667.88
2023-03-25T03:14:27.469Z,98669.81
2023-03-25T03:15:38.737Z,98665.50
2023-03-25T03:17:03.502Z,98669.69
2023-03-25T03:18:09.858Z,98669.81
2023-03-25T03:19:24.301Z,98672.94
2023-03-25T03:20:26.796Z,98677.34
2023-03-25T03:21:40.322Z,98662.53
2023-03-25T03:23:02.053Z,98673.19
2023-03-25T03:24:22.600Z,98677.75
2023-03-25T03:25:36.480Z,98670.84
2023-03-25T03:26:48.645Z,98679.84
2023-03-25T03:27:56.574Z,98669.69
2023-03-25T03:29:22.868Z,98679.94
2023-03-25T03:30:46.281Z,98680.88
2023-03-25T03:32:13.166Z,98685.00
2023-03-25T03:33:26.793Z,98674.25
2023-03-25T03:34:40.977Z,98679.69
2023-03-25T03:36:05.749Z,98682.28
2023-03-25T03:37:11.621Z,98685.72
2023-03-25T03:38:16.525Z,98681.25
2023-03-25T03:39:30.620Z,98687.25
2023-03-25T03:40:36.310Z,98685.13
2023-03-25T03:41:43.485Z,98681.53
2023-03-25T03:42:58.804Z,98681.53
2023-03-25T03:44:06.306Z,98678.50
2023-03-25T03:45:22.133Z,98682.88
2023-03-25T03:46:54.617Z,98671.72
2023-03-25T03:47:59.891Z,98681.16
2023-03-25T03:49:08.837Z,98681.72
2023-03-25T03:50:16.207Z,98676.63
2023-03-25T03:51:24.876Z,98682.22
2023-03-25T03:52:51.464Z,98683.75
2023-03-25T03:54:00.420Z,98677.47
2023-03-25T03:55:10.646Z,98683.25
2023-03-25T03:56:29.042Z,98686.53
2023-03-25T03:57:40.647Z,98678.28
2023-03-25T03:58:43.482Z,98686.31
2023-03-25T04:00:04.092Z,98683.78
2023-03-25T04:01:30.263Z,98668.97
2023-03-25T04:02:45.197Z,98684.34
2023-03-25T04:03:54.207Z,98685.28
2023-03-25T04:05:00.558Z,98678.47
2023-03-25T04:06:18.201Z,98675.69
2023-03-25T04:07:27.995Z,98692.63
2023-03-25T04:08:42.659Z,98687.50
2023-03-25T04:10:14.866Z,98681.88
2023-03-25T04:11:23.854Z,98684.06
2023-03-25T04:12:28.043Z,98690.84
2023-03-25T04:13:36.946Z,98687.88
2023-03-25T04:14:39.704Z,98673.00
2023-03-25T04:15:43.136Z,98678.78
2023-03-25T04:16:48.461Z,98684.28
2023-03-25T04:17:50.699Z,98672.34
2023-03-25T04:18:53.650Z,98682.09
2023-03-25T04:19:56.825Z,98677.47
2023-03-25T04:21:00.899Z,98679.53
2023-03-25T04:22:04.484Z,98680.16
2023-03-25T04:23:09.731Z,98674.78
2023-03-25T04:24:12.404Z,98679.66
2023-03-25T04:25:14.763Z,98681.06
2023-03-25T04:26:17.497Z,98685.88
2023-03-25T04:27:22.990Z,98689.63
2023-03-25T04:28:25.654Z,98683.03
2023-03-25T04:29:27.856Z,98691.84
2023-03-25T04:30:30.988Z,98692.56
2023-03-25T04:31:33.415Z,98688.31
2023-03-25T04:32:35.905Z,98694.13
2023-03-25T04:33:38.133Z,98702.09
2023-03-25T04:34:40.518Z,98694.13
2023-03-25T04:35:42.760Z,98697.63
2023-03-25T04:36:46.770Z,98713.50
2023-03-25T04:37:49.240Z,98700.28
2023-03-25T04:38:53.023Z,98710.63
2023-03-25T04:40:00.108Z,98711.41
2023-03-25T04:41:06.707Z,98706.59
2023-03-25T04:42:13.628Z,98706.28
2023-03-25T04:43:16.760Z,98704.09
2023-03-25T04:44:21.260Z,98711.75
2023-03-25T04:45:25.275Z,98708.34
2023-03-25T04:46:27.473Z,98716.00
2023-03-25T04:47:29.810Z,98712.84
2023-03-25T04:48:35.299Z,98718.19
2023-03-25T04:49:37.572Z,98710.72
2023-03-25T04:50:39.816Z,98709.88
2023-03-25T04:51:42.045Z,98698.09
2023-03-25T04:52:44.285Z,98704.28
2023-03-25T04:53:46.513Z,98705.94
2023-03-25T04:54:49.019Z,98709.28
2023-03-25T04:55:51.509Z,98714.31
2023-03-25T04:56:54.042Z,98712.38
2023-03-25T04:57:56.205Z,98713.34
2023-03-25T04:58:58.522Z,98716.84
2023-03-25T05:00:00.941Z,98712.66
2023-03-25T05:01:06.199Z,98714.22
2023-03-25T05:02:13.437Z,98717.72
2023-03-25T05:03:16.262Z,98710.59
2023-03-25T05:04:19.270Z,98705.63
2023-03-25T05:05:25.893Z,98713.41
2023-03-25T05:06:29.128Z,98712.47
2023-03-25T05:07:31.377Z,98709.63
2023-03-25T05:08:34.154Z,98705.56
2023-03-25T05:09:36.327Z,98711.88
2023-03-25T05:10:38.900Z,98717.16
2023-03-25T05:11:42.499Z,98708.84
2023-03-25T05:12:44.857Z,98714.66
2023-03-25T05:13:47.139Z,98716.94
2023-03-25T05:14:49.571Z,98706.75
2023-03-25T05:15:51.860Z,98720.16
2023-03-25T05:16:55.743Z,98718.06
2023-03-25T05:17:58.790Z,98697.50
2023-03-25T05:19:03.434Z,98712.25
2023-03-25T05:20:08.666Z,98714.97
2023-03-25T05:21:11.442Z,98709.47
2023-03-25T05:22:14.431Z,98721.03
2023-03-25T05:23:18.008Z,98718.31
2023-03-25T05:24:20.671Z,98718.31
2023-03-25T05:25:23.335Z,98713.03
2023-03-25T05:26:25.539Z,98715.91
2023-03-25T05:27:30.181Z,98716.22
2023-03-25T05:28:32.577Z,98704.94
2023-03-25T05:29:34.902Z,98720.09
2023-03-25T05:30:39.341Z,98723.91
2023-03-25T05:31:46.178Z,98711.00
2023-03-25T05:32:56.147Z,98715.69
2023-03-25T05:33:59.400Z,98716.44
2023-03-25T05:35:03.511Z,98715.47
2023-03-25T05:36:06.154Z,98719.88
2023-03-25T05:37:08.696Z,98710.28
2023-03-25T05:38:18.382Z,98707.06
2023-03-25T05:39:20.571Z,98697.69
2023-03-25T05:40:23.128Z,98703.63
2023-03-25T05:41:32.861Z,98706.47
2023-03-25T05:42:35.151Z,98713.44
2023-03-25T05:43:38.217Z,98720.25
2023-03-25T05:44:50.856Z,98710.50
2023-03-25T05:45:53.397Z,98717.56
2023-03-25T05:46:56.532Z,98721.09
2023-03-25T05:48:00.538Z,98716.66
2023-03-25T05:49:03.076Z,98719.09
2023-03-25T05:50:05.768Z,98721.69
2023-03-25T05:51:17.505Z,98717.78
2023-03-25T05:52:24.333Z,98716.31
2023-03-25T05:53:26.563Z,98711.78
2023-03-25T05:54:29.458Z,98730.28
2023-03-25T05:55:31.877Z,98721.91
2023-03-25T05:56:34.415Z,98730.72
2023-03-25T05:57:36.820Z,98738.47
2023-03-25T05:58:39.315Z,98718.50
2023-03-25T05:59:41.681Z,98723.47
2023-03-25T06:00:44.049Z,98728.69
2023-03-25T06:01:47.419Z,98730.56
2023-03-25T06:02:50.249Z,98723.69
2023-03-25T06:03:52.720Z,98717.06
2023-03-25T06:04:55.426Z,98724.00
2023-03-25T06:05:57.788Z,98734.59
2023-03-25T06:07:01.521Z,98722.66
2023-03-25T06:08:03.803Z,98726.94
2023-03-25T06:09:07.141Z,98737.53
2023-03-25T06:10:16.953Z,98740.09
2023-03-25T06:11:20.020Z,98735.72
2023-03-25T06:12:23.486Z,98730.50
2023-03-25T06:13:25.714Z,98739.91
2023-03-25T06:14:28.036Z,98738.06
2023-03-25T06:15:33.588Z,98736.63
2023-03-25T06:16:36.220Z,98752.41
2023-03-25T06:17:38.689Z,98748.47
2023-03-25T06:18:41.015Z,98744.22
2023-03-25T06:19:43.240Z,98740.78
2023-03-25T06:20:46.901Z,98758.00
2023-03-25T06:21:49.725Z,98751.78
2023-03-25T06:22:52.265Z,98754.41
2023-03-25T06:23:54.947Z,98767.63
2023-03-25T06:24:57.115Z,98753.53
2023-03-25T06:25:59.571Z,98763.06
2023-03-25T06:27:01.813Z,98756.81
2023-03-25T06:28:04.230Z,98752.19
2023-03-25T06:29:08.462Z,98757.03
2023-03-25T06:30:13.841Z,98766.31
2023-03-25T06:31:20.382Z,98757.81
2023-03-25T06:32:22.678Z,98764.06
2023-03-25T06:33:42.352Z,98754.16
2023-03-25T06:34:45.964Z,98765.97
2023-03-25T06:35:54.595Z,98751.47
2023-03-25T06:36:56.944Z,98754.84
2023-03-25T06:37:59.220Z,98766.19
2023-03-25T06:39:07.935Z,98765.19
2023-03-25T06:40:11.677Z,98768.00
2023-03-25T06:41:15.015Z,98761.56
2023-03-25T06:42:18.599Z,98776.59
2023-03-25T06:43:39.704Z,98775.75
2023-03-25T06:45:03.382Z,98778.13
2023-03-25T06:46:18.967Z,98783.72
2023-03-25T06:47:41.708Z,98788.72
2023-03-25T06:48:44.087Z,98780.06
2023-03-25T06:49:46.497Z,98786.09
2023-03-25T06:50:48.740Z,98779.75
2023-03-25T06:51:50.969Z,98775.44
2023-03-25T06:52:53.159Z,98783.13
2023-03-25T06:53:55.500Z,98773.84
2023-03-25T06:54:57.788Z,98771.50
2023-03-25T06:56:00.074Z,98768.03
2023-03-25T06:57:02.358Z,98763.06
2023-03-25T06:58:05.585Z,98774.09
2023-03-25T06:59:07.895Z,98775.38
2023-03-25T07:00:12.068Z,98769.91
2023-03-25T07:01:14.377Z,98761.75
2023-03-25T07:02:16.812Z,98777.25
2023-03-25T07:03:19.010Z,98763.97
2023-03-25T07:04:21.385Z,98773.66
2023-03-25T07:05:25.288Z,98770.44
2023-03-25T07:06:27.621Z,98773.97
2023-03-25T07:07:29.911Z,98766.19
2023-03-25T07:08:32.333Z,98764.50
2023-03-25T07:09:34.668Z,98772.53
2023-03-25T07:10:36.948Z,98782.47
2023-03-25T07:11:39.234Z,98773.50
2023-03-25T07:12:41.448Z,98772.81
2023-03-25T07:13:43.739Z,98772.44
2023-03-25T07:14:53.746Z,98769.19
2023-03-25T07:15:56.524Z,98762.19
2023-03-25T07:16:58.891Z,98750.28
2023-03-25T07:18:01.238Z,98767.19
2023-03-25T07:19:03.658Z,98765.31
2023-03-25T07:20:07.088Z,98763.00
2023-03-25T07:21:09.349Z,98763.03
2023-03-25T07:22:11.637Z,98756.22
2023-03-25T07:23:13.885Z,98759.09
2023-03-25T07:24:16.192Z,98758.28
2023-03-25T07:25:18.380Z,98759.75
2023-03-25T07:26:20.687Z,98756.44
2023-03-25T07:27:22.844Z,98754.94
2023-03-25T07:28:34.298Z,98747.53
2023-03-25T07:36:12.494Z,98750.44
2023-03-25T07:37:14.785Z,98744.84
2023-03-25T07:38:17.134Z,98735.75
2023-03-25T07:39:19.343Z,98750.97
2023-03-25T07:40:21.685Z,98750.94
2023-03-25T07:41:23.980Z,98755.63
2023-03-25T07:42:46.785Z,98753.53
2023-03-25T07:43:56.947Z,98735.16
2023-03-25T07:45:06.599Z,98744.66
2023-03-25T07:46:09.861Z,98733.47
2023-03-25T07:47:12.123Z,98750.44
2023-03-25T07:48:16.193Z,98747.47
2023-03-25T07:49:18.553Z,98743.41
2023-03-25T07:50:25.047Z,98747.47
2023-03-25T07:51:28.515Z,98747.25
2023-03-25T07:52:30.793Z,98747.75
2023-03-25T07:53:33.222Z,98751.28
2023-03-25T07:54:36.000Z,98753.25
2023-03-25T07:55:38.379Z,98749.88
2023-03-25T07:56:40.736Z,98745.13
2023-03-25T07:57:43.194Z,98753.03
2023-03-25T07:58:46.393Z,98741.25
2023-03-25T07:59:48.602Z,98746.38
2023-03-25T08:00:50.898Z,98733.59
2023-03-25T08:01:53.215Z,98734.88
2023-03-25T08:02:56.073Z,98737.19
2023-03-25T08:03:58.470Z,98739.44
2023-03-25T08:05:02.052Z,98739.31
2023-03-25T08:06:05.771Z,98742.63
2023-03-25T08:07:08.115Z,98742.41
2023-03-25T08:08:10.949Z,98747.72
2023-03-25T08:09:13.163Z,98727.69
2023-03-25T08:10:16.199Z,98726.41
2023-03-25T08:11:18.385Z,98733.47
2023-03-25T08:12:20.850Z,98726.41
2023-03-25T08:13:23.375Z,98723.44
2023-03-25T08:14:25.687Z,98726.97
2023-03-25T08:15:27.936Z,98729.13
2023-03-25T08:16:30.227Z,98723.56
2023-03-25T08:17:32.694Z,98729.31
2023-03-25T08:18:34.908Z,98721.50
2023-03-25T08:19:37.192Z,98742.81
2023-03-25T08:20:39.630Z,98727.66
2023-03-25T08:21:41.870Z,98732.81
2023-03-25T08:22:45.260Z,98727.22
2023-03-25T08:23:47.787Z,98723.94
2023-03-25T08:24:50.018Z,98721.28
2023-03-25T08:25:53.596Z,98734.22
2023-03-25T08:26:56.389Z,98727.09
2023-03-25T08:27:58.731Z,98727.91
2023-03-25T08:29:02.654Z,98737.94
2023-03-25T08:30:05.650Z,98723.72
2023-03-25T08:31:09.466Z,98742.25
2023-03-25T08:32:11.660Z,98743.72
2023-03-25T08:33:13.896Z,98734.25
2023-03-25T08:34:16.511Z,98746.34
2023-03-25T08:35:19.426Z,98746.25
2023-03-25T08:36:23.184Z,98741.88
2023-03-25T08:37:25.846Z,98758.81
2023-03-25T08:38:34.296Z,98764.56
2023-03-25T08:39:39.978Z,98773.28
2023-03-25T08:40:43.956Z,98794.97
2023-03-25T08:41:46.186Z,98799.31
2023-03-25T08:42:48.479Z,98789.91
2023-03-25T08:43:50.886Z,98810.19
2023-03-25T08:44:53.148Z,98803.81
2023-03-25T08:45:55.563Z,98791.09
2023-03-25T08:46:57.872Z,98799.16
2023-03-25T08:48:01.241Z,98795.41
2023-03-25T08:49:05.078Z,98795.78
2023-03-25T08:50:07.879Z,98793.19
2023-03-25T08:51:10.200Z,98780.59
2023-03-25T08:52:12.447Z,98784.72
2023-03-25T08:53:14.767Z,98792.47
2023-03-25T08:54:17.131Z,98782.41
2023-03-25T08:55:19.411Z,98773.91
2023-03-25T08:56:21.754Z,98774.69
2023-03-25T08:57:24.098Z,98772.59
2023-03-25T08:58:26.455Z,98767.69
2023-03-25T08:59:29.099Z,98762.81
2023-03-25T09:00:32.341Z,98779.31
2023-03-25T09:01:34.803Z,98762.94
2023-03-25T09:02:37.173Z,98764.44
2023-03-25T09:03:41.037Z,98771.84
2023-03-25T09:04:43.608Z,98758.44
2023-03-25T09:05:46.194Z,98767.88
2023-03-25T09:07:10.849Z,98761.78
2023-03-25T09:08:11.722Z,98770.69
2023-03-25T09:09:13.961Z,98774.84
2023-03-25T09:10:16.669Z,98772.34
2023-03-25T09:11:30.183Z,98770.88
2023-03-25T09:12:38.821Z,98770.63
2023-03-25T09:13:41.147Z,98766.97
2023-03-25T09:14:43.563Z,98775.72
2023-03-25T09:15:46.011Z,98763.03
2023-03-25T09:16:48.329Z,98775.38
2023-03-25T09:17:50.819Z,98761.34
2023-03-25T09:18:53.117Z,98759.59
2023-03-25T09:19:56.965Z,98755.94
2023-03-25T09:21:00.796Z,98758.00
2023-03-25T09:22:03.521Z,98759.28
2023-03-25T09:23:05.816Z,98752.34
2023-03-25T09:24:09.085Z,98747.22
2023-03-25T09:25:11.499Z,98742.78
2023-03-25T09:26:13.761Z,98742.63
2023-03-25T09:27:16.013Z,98743.09
2023-03-25T09:28:18.280Z,98748.53
2023-03-25T09:29:20.645Z,98746.22
2023-03-25T09:30:22.917Z,98766.19
2023-03-25T09:31:26.070Z,98758.97
2023-03-25T09:32:28.497Z,98770.19
2023-03-25T09:33:31.290Z,98764.94
2023-03-25T09:34:34.336Z,98768.50
2023-03-25T09:35:36.776Z,98782.84
2023-03-25T09:36:39.043Z,98765.41
2023-03-25T09:37:41.272Z,98779.38
2023-03-25T09:38:43.488Z,98786.91
2023-03-25T09:39:46.002Z,98786.31
2023-03-25T09:40:48.228Z,98794.13
2023-03-25T09:42:05.388Z,98806.28
2023-03-25T09:43:36.561Z,98808.66
2023-03-25T09:45:16.042Z,98788.16
2023-03-25T09:46:18.369Z,98794.59
2023-03-25T09:47:23.080Z,98795.28
2023-03-25T09:48:42.906Z,98803.41
2023-03-25T09:49:53.518Z,98784.28
2023-03-25T09:51:00.498Z,98778.59
2023-03-25T09:52:03.792Z,98784.22
2023-03-25T09:53:33.626Z,98792.44
2023-03-25T09:54:43.266Z,98778.38
2023-03-25T09:55:48.095Z,98785.06
2023-03-25T09:56:51.579Z,98792.63
2023-03-25T09:58:25.641Z,98781.50
2023-03-25T09:59:44.640Z,98788.34
2023-03-25T10:00:53.736Z,98791.72
2023-03-25T10:02:20.469Z,98793.69
2023-03-25T10:03:43.556Z,98790.50
2023-03-25T10:05:18.863Z,98792.69
2023-03-25T10:06:22.023Z,98797.03
2023-03-25T10:08:01.360Z,98783.59
2023-03-25T10:09:19.199Z,98795.84
2023-03-25T10:10:30.793Z,98790.25
2023-03-25T10:11:55.629Z,98798.13
2023-03-25T10:13:27.708Z,98792.50
2023-03-25T10:14:55.726Z,98799.38
2023-03-25T10:16:45.773Z,98783.22
2023-03-25T10:18:09.173Z,98781.94
2023-03-25T10:19:31.313Z,98786.50
2023-03-25T10:20:55.879Z,98773.28
2023-03-25T10:22:12.361Z,98787.53
2023-03-25T10:23:26.356Z,98766.81
2023-03-25T10:24:36.284Z,98767.94
2023-03-25T10:25:43.987Z,98779.03
2023-03-25T10:26:59.383Z,98778.50
2023-03-25T10:28:03.297Z,98754.81
2023-03-25T10:29:12.351Z,98777.13
2023-03-25T10:30:18.832Z,98760.16
2023-03-25T10:31:25.397Z,98763.38
2023-03-25T10:32:36.596Z,98777.66
2023-03-25T10:33:51.553Z,98778.56
2023-03-25T10:34:56.010Z,98758.97
2023-03-25T10:36:00.446Z,98772.16
2023-03-25T10:37:07.844Z,98778.31
2023-03-25T10:38:20.862Z,98758.25
2023-03-25T10:39:24.858Z,98747.88
2023-03-25T10:40:38.806Z,98750.97
2023-03-25T10:41:43.336Z,98745.88
2023-03-25T10:42:57.214Z,98753.16
2023-03-25T10:43:59.607Z,98741.50
2023-03-25T10:45:02.025Z,98755.06
2023-03-25T10:46:18.538Z,98743.91
2023-03-25T10:47:26.726Z,98738.47
2023-03-25T10:48:31.071Z,98739.97
2023-03-25T10:49:34.386Z,98758.63
2023-03-25T10:50:37.142Z,98748.69
2023-03-25T10:51:39.469Z,98739.31
2023-03-25T10:52:42.604Z,98741.19
2023-03-25T10:53:53.184Z,98752.03
2023-03-25T10:54:57.072Z,98743.25
2023-03-25T10:56:13.660Z,98741.09
2023-03-25T10:57:29.538Z,98736.25
2023-03-25T10:58:33.821Z,98742.69
2023-03-25T10:59:47.406Z,98742.09
2023-03-25T11:00:49.745Z,98741.41
2023-03-25T11:01:54.882Z,98735.53
2023-03-25T11:02:57.301Z,98757.28
2023-03-25T11:04:01.381Z,98732.94
2023-03-25T11:05:07.399Z,98749.63
2023-03-25T11:06:22.478Z,98741.25
2023-03-25T11:07:34.017Z,98751.63
2023-03-25T11:08:36.379Z,98748.69
2023-03-25T11:09:38.939Z,98741.41
2023-03-25T11:10:41.355Z,98747.72
2023-03-25T11:11:44.180Z,98748.13
2023-03-25T11:12:48.211Z,98759.47
2023-03-25T11:13:56.759Z,98745.47
2023-03-25T11:15:01.833Z,98762.09
2023-03-25T11:16:04.588Z,98756.66
2023-03-25T11:17:18.378Z,98759.75
2023-03-25T11:18:28.692Z,98771.53
2023-03-25T11:19:36.803Z,98759.31
2023-03-25T11:20:45.859Z,98760.84
2023-03-25T11:21:55.464Z,98745.72
2023-03-25T11:23:06.481Z,98759.06
2023-03-25T11:24:08.706Z,98762.81
2023-03-25T11:25:25.693Z,98758.84
2023-03-25T11:26:39.194Z,98767.69
2023-03-25T11:27:48.291Z,98756.31
2023-03-25T11:29:02.340Z,98762.22
2023-03-25T11:30:14.305Z,98761.56
2023-03-25T11:31:19.352Z,98766.63
2023-03-25T11:32:33.406Z,98768.72
2023-03-25T11:33:36.974Z,98767.81
2023-03-25T11:34:42.137Z,98759.00
2023-03-25T11:35:46.796Z,98756.28
2023-03-25T11:36:55.130Z,98757.34
2023-03-25T11:37:59.749Z,98739.59
2023-03-25T11:39:14.553Z,98747.03
2023-03-25T11:40:18.621Z,98749.50
2023-03-25T11:41:21.000Z,98749.06
2023-03-25T11:42:33.164Z,98761.91
2023-03-25T11:43:38.228Z,98762.09
2023-03-25T11:44:41.308Z,98752.16
2023-03-25T11:45:45.873Z,98751.31
2023-03-25T11:46:52.182Z,98751.16
2023-03-25T11:47:59.850Z,98749.78
2023-03-25T11:49:12.055Z,98742.91
2023-03-25T11:50:23.809Z,98750.63
2023-03-25T11:51:31.376Z,98738.81
2023-03-25T11:52:43.121Z,98733.47
2023-03-25T11:53:57.455Z,98745.91
2023-03-25T11:55:01.064Z,98740.78
2023-03-25T11:56:14.618Z,98746.66
2023-03-25T11:57:22.452Z,98724.06
2023-03-25T11:58:29.217Z,98729.34
2023-03-25T11:59:44.086Z,98747.38
2023-03-25T12:00:48.996Z,98738.53
2023-03-25T12:01:59.779Z,98742.22
2023-03-25T12:03:12.346Z,98733.69
2023-03-25T12:04:19.463Z,98721.97
2023-03-25T12:05:21.714Z,98722.91
2023-03-25T12:06:24.007Z,98738.50
2023-03-25T12:07:26.343Z,98747.78
2023-03-25T12:08:30.905Z,98741.66
2023-03-25T12:09:33.484Z,98742.63
2023-03-25T12:11:03.211Z,98733.53
2023-03-25T12:12:26.972Z,98757.75
2023-03-25T12:14:04.575Z,98747.69
2023-03-25T12:15:33.025Z,98752.03
2023-03-25T12:16:44.307Z,98767.81
2023-03-25T12:18:14.308Z,98751.78
2023-03-25T12:19:24.797Z,98760.97
2023-03-25T12:20:52.050Z,98756.88
2023-03-25T12:22:09.226Z,98760.56
2023-03-25T12:23:39.452Z,98758.81
2023-03-25T12:25:09.870Z,98749.88
2023-03-25T12:26:17.553Z,98753.03
2023-03-25T12:27:40.923Z,98766.97
2023-03-25T12:29:02.070Z,98743.41
2023-03-25T12:30:22.398Z,98755.56
2023-03-25T12:31:36.534Z,98754.34
2023-03-25T12:33:22.150Z,98745.59
2023-03-25T12:34:52.880Z,98747.66
2023-03-25T12:36:14.938Z,98739.28
2023-03-25T12:37:36.384Z,98758.78
2023-03-25T12:39:17.259Z,98753.00
2023-03-25T12:40:32.693Z,98753.50
2023-03-25T12:41:49.575Z,98751.97
2023-03-25T12:43:05.051Z,98748.88
2023-03-25T12:44:28.832Z,98735.88
2023-03-25T12:45:31.410Z,98737.44
2023-03-25T12:46:54.725Z,98757.91
2023-03-25T12:48:07.158Z,98754.25
2023-03-25T12:49:27.820Z,98756.31
2023-03-25T12:50:47.812Z,98754.63
2023-03-25T12:52:19.061Z,98769.06
2023-03-25T12:53:46.782Z,98765.16
2023-03-25T12:55:03.990Z,98762.69
2023-03-25T12:56:24.815Z,98743.97
2023-03-25T12:57:54.801Z,98749.16
2023-03-25T12:59:44.368Z,98755.00
2023-03-25T13:01:11.940Z,98757.09
2023-03-25T13:02:29.808Z,98739.81
2023-03-25T13:03:53.063Z,98745.38
2023-03-25T13:05:24.947Z,98729.47
2023-03-25T13:06:47.356Z,98729.81
2023-03-25T13:07:57.981Z,98736.22
2023-03-25T13:09:10.579Z,98739.50
2023-03-25T13:10:19.053Z,98727.88
2023-03-25T13:11:31.641Z,98733.84
2023-03-25T13:12:46.046Z,98732.28
2023-03-25T13:13:51.108Z,98733.94
2023-03-25T13:15:06.721Z,98740.88
2023-03-25T13:16:13.132Z,98734.94
2023-03-25T13:17:44.760Z,98731.97
2023-03-25T13:18:53.268Z,98729.91
2023-03-25T13:20:00.994Z,98737.56
2023-03-25T13:21:26.053Z,98727.31
2023-03-25T13:22:34.855Z,98732.28
2023-03-25T13:23:39.222Z,98728.06
2023-03-25T13:24:56.690Z,98729.44
2023-03-25T13:26:11.681Z,98745.81
2023-03-25T13:27:14.539Z,98729.97
2023-03-25T13:28:23.057Z,98730.88
2023-03-25T13:29:39.510Z,98721.59
2023-03-25T13:30:46.088Z,98724.63
2023-03-25T13:31:49.653Z,98733.91
2023-03-25T13:32:57.852Z,98728.81
2023-03-25T13:34:35.218Z,98728.84
2023-03-25T13:35:44.464Z,98730.84
2023-03-25T13:37:00.960Z,98726.06
2023-03-25T13:38:13.574Z,98743.44
2023-03-25T13:39:22.813Z,98723.63
2023-03-25T13:40:50.130Z,98720.13
2023-03-25T13:42:01.613Z,98710.91
2023-03-25T13:43:13.211Z,98710.56
2023-03-25T13:44:35.980Z,98723.56
2023-03-25T13:46:07.146Z,98715.53
2023-03-25T13:47:21.268Z,98745.50
2023-03-25T13:48:40.509Z,98730.56
2023-03-25T13:50:02.620Z,98748.13
2023-03-25T13:51:05.278Z,98745.66
2023-03-25T13:52:08.158Z,98746.59
2023-03-25T13:53:23.652Z,98734.28
2023-03-25T13:54:34.949Z,98761.97
2023-03-25T13:55:41.435Z,98743.59
2023-03-25T13:56:59.048Z,98735.13
2023-03-25T13:58:18.528Z,98741.16
2023-03-25T13:59:38.350Z,98732.38
2023-03-25T14:00:54.414Z,98743.72
2023-03-25T14:02:15.871Z,98736.72
2023-03-25T14:03:27.293Z,98738.34
2023-03-25T14:04:49.824Z,98729.28
2023-03-25T14:06:20.436Z,98746.88
2023-03-25T14:07:35.394Z,98741.97
2023-03-25T14:09:12.118Z,98735.22
2023-03-25T14:10:29.470Z,98754.72
2023-03-25T14:12:08.324Z,98758.69
2023-03-25T14:13:15.705Z,98751.41
2023-03-25T14:14:22.328Z,98758.56
2023-03-25T14:15:36.939Z,98763.97
2023-03-25T14:16:45.291Z,98763.13
2023-03-25T14:17:50.255Z,98781.59
2023-03-25T14:18:58.695Z,98767.09
2023-03-25T14:20:05.649Z,98760.22
2023-03-25T14:21:27.089Z,98774.00
2023-03-25T14:22:32.516Z,98777.03
2023-03-25T14:23:34.935Z,98774.84
2023-03-25T14:24:37.817Z,98763.34
2023-03-25T14:25:44.443Z,98765.09
2023-03-25T14:26:50.340Z,98781.94
2023-03-25T14:27:52.958Z,98785.72
2023-03-25T14:28:58.163Z,98773.25
2023-03-25T14:30:06.934Z,98763.81
2023-03-25T14:31:21.896Z,98776.88
2023-03-25T14:32:27.105Z,98775.34
2023-03-25T14:34:02.389Z,98776.75
2023-03-25T14:35:33.162Z,98774.91
2023-03-25T14:36:41.885Z,98772.50
2023-03-25T14:37:44.151Z,98760.94
2023-03-25T14:38:56.674Z,98768.38
2023-03-25T14:40:00.794Z,98777.28
2023-03-25T14:41:03.999Z,98776.66
2023-03-25T14:42:06.521Z,98770.72
2023-03-25T14:43:54.287Z,98767.03
2023-03-25T14:45:32.228Z,98765.44
2023-03-25T14:46:37.486Z,98754.34
2023-03-25T14:47:52.623Z,98750.28
2023-03-25T14:49:03.958Z,98751.59
2023-03-25T14:50:21.235Z,98747.25
2023-03-25T14:51:26.509Z,98749.50
2023-03-25T14:52:43.473Z,98754.97
2023-03-25T14:54:26.907Z,98750.16
2023-03-25T14:55:36.184Z,98755.34
2023-03-25T14:56:48.285Z,98745.56
2023-03-25T14:57:51.247Z,98739.13
2023-03-25T14:58:58.072Z,98748.19
2023-03-25T15:00:15.948Z,98746.00
2023-03-25T15:01:20.463Z,98744.50
2023-03-25T15:02:28.842Z,98747.81
2023-03-25T15:03:37.449Z,98746.78
2023-03-25T15:04:40.308Z,98739.47
2023-03-25T15:05:43.881Z,98748.97
2023-03-25T15:06:49.149Z,98737.16
2023-03-25T15:08:14.348Z,98742.66
2023-03-25T15:09:18.717Z,98732.03
2023-03-25T15:10:29.584Z,98723.84
2023-03-25T15:11:38.128Z,98737.72
2023-03-25T15:12:41.459Z,98739.69
2023-03-25T15:13:52.744Z,98735.69
2023-03-25T15:15:03.336Z,98740.88
2023-03-25T15:16:17.851Z,98727.25
2023-03-25T15:17:46.432Z,98732.19
2023-03-25T15:18:49.509Z,98726.19
2023-03-25T15:20:09.042Z,98726.50
2023-03-25T15:21:12.405Z,98734.63
2023-03-25T15:22:20.063Z,98735.38
2023-03-25T15:23:33.408Z,98731.06
2023-03-25T15:24:38.190Z,98723.16
2023-03-25T15:25:42.825Z,98732.84
2023-03-25T15:26:46.004Z,98729.81
2023-03-25T15:28:11.044Z,98730.06
2023-03-25T15:29:31.786Z,98737.25
2023-03-25T15:30:57.413Z,98740.44
2023-03-25T15:32:02.543Z,98739.53
2023-03-25T15:33:16.809Z,98735.81
2023-03-25T15:34:37.276Z,98742.34
2023-03-25T15:35:54.499Z,98744.38
2023-03-25T15:37:46.598Z,98735.72
2023-03-25T15:39:19.690Z,98739.69
2023-03-25T15:40:59.993Z,98730.25
2023-03-25T15:42:22.234Z,98735.44
2023-03-25T15:44:00.932Z,98743.72
2023-03-25T15:45:03.820Z,98738.50
2023-03-25T15:46:16.026Z,98745.31
2023-03-25T15:47:33.901Z,98751.53
2023-03-25T15:48:48.148Z,98739.34
2023-03-25T15:50:11.903Z,98738.81
2023-03-25T15:51:39.723Z,98737.41
2023-03-25T15:53:03.572Z,98739.63
2023-03-25T15:54:27.331Z,98741.25
2023-03-25T15:55:50.345Z,98739.81
2023-03-25T15:56:54.553Z,98746.50
2023-03-25T15:58:04.453Z,98738.94
2023-03-25T15:59:25.526Z,98748.81
2023-03-25T16:00:33.211Z,98744.63
2023-03-25T16:01:39.265Z,98744.72
2023-03-25T16:02:51.055Z,98745.97
2023-03-25T16:04:06.635Z,98745.94
2023-03-25T16:05:12.661Z,98744.06
2023-03-25T16:06:17.495Z,98748.00
2023-03-25T16:07:24.421Z,98744.31
2023-03-25T16:08:48.536Z,98749.13
2023-03-25T16:09:51.346Z,98745.56
2023-03-25T16:10:53.677Z,98739.56
2023-03-25T16:12:00.934Z,98751.34
2023-03-25T16:13:05.573Z,98741.81
2023-03-25T16:14:13.177Z,98740.81
2023-03-25T16:15:17.891Z,98744.50
2023-03-25T16:16:20.558Z,98744.59
2023-03-25T16:17:30.092Z,98728.22
2023-03-25T16:18:32.754Z,98732.28
2023-03-25T16:19:51.912Z,98727.28
2023-03-25T16:20:57.733Z,98737.50
2023-03-25T16:22:08.148Z,98741.59
2023-03-25T16:23:19.025Z,98741.13
2023-03-25T16:24:26.001Z,98734.72
2023-03-25T16:25:37.938Z,98743.75
2023-03-25T16:26:44.036Z,98739.09
2023-03-25T16:27:51.222Z,98733.53
2023-03-25T16:28:53.390Z,98734.47
2023-03-25T16:29:56.767Z,98732.22
2023-03-25T16:30:59.115Z,98732.41
2023-03-25T16:32:03.261Z,98733.13
2023-03-25T16:33:08.273Z,98734.47
2023-03-25T16:34:15.272Z,98738.56
2023-03-25T16:35:28.750Z,98745.00
2023-03-25T16:36:31.136Z,98742.63
2023-03-25T16:37:42.913Z,98746.69
2023-03-25T16:38:45.779Z,98736.38
2023-03-25T16:39:56.073Z,98723.63
2023-03-25T16:41:03.328Z,98750.31
2023-03-25T16:42:15.190Z,98753.44